Time;durP1;ratioP1;P1;durP2;ratioP2;P2;SDS_P1;SDS_P2;PMS_P1;PMS_P2;Temp;Humidity;BMP_temperature;BMP_pressure;BME280_temperature;BME280_humidity;BME280_pressure;Samples;Min_cycle;Max_cycle;Signal;HPM_P1;HPM_P2
2023/06/11 00:00:37;;;;;;;1999.90;999.90;;;18.70;99.90;;;;;;5031894;28;20036;-87
2023/06/11 00:03:04;;;;;;;1999.90;999.90;;;18.70;99.90;;;;;;5031506;28;20091;-88
2023/06/11 00:05:30;;;;;;;1999.90;999.90;;;18.70;99.90;;;;;;5031400;28;20108;-87
2023/06/11 00:08:00;;;;;;;1999.90;999.90;;;18.70;99.90;;;;;;5032666;28;20152;-88
2023/06/11 00:10:26;;;;;;;1999.90;999.90;;;18.70;99.90;;;;;;5032591;28;20044;-87
2023/06/11 00:12:51;;;;;;;1999.90;999.90;;;18.70;99.90;;;;;;5022971;28;20026;-88
2023/06/11 00:15:17;;;;;;;1999.90;999.90;;;18.70;99.90;;;;;;5012663;28;20061;-88
2023/06/11 00:17:43;;;;;;;1999.90;999.90;;;18.60;99.90;;;;;;5013155;28;20337;-87
2023/06/11 00:20:09;;;;;;;1999.90;999.90;;;18.60;99.90;;;;;;5013098;28;20025;-88
2023/06/11 00:22:37;;;;;;;1999.90;999.90;;;18.60;99.90;;;;;;5013030;28;20029;-87
2023/06/11 00:25:03;;;;;;;1999.90;999.90;;;18.60;99.90;;;;;;5030713;28;20524;-88
2023/06/11 00:27:29;;;;;;;1999.90;999.90;;;18.50;99.90;;;;;;5015177;28;20026;-87
2023/06/11 00:29:55;;;;;;;1999.90;999.90;;;18.50;99.90;;;;;;5032579;28;20095;-88
2023/06/11 00:32:20;;;;;;;1999.90;999.90;;;18.50;99.90;;;;;;5032921;28;20033;-87
2023/06/11 00:34:46;;;;;;;1999.90;999.90;;;18.60;99.90;;;;;;5032997;28;20029;-87
2023/06/11 00:37:14;;;;;;;1999.90;999.90;;;18.50;99.90;;;;;;5033053;28;20120;-88
2023/06/11 00:39:40;;;;;;;1999.90;999.90;;;18.50;99.90;;;;;;5033002;28;20029;-87
2023/06/11 00:42:09;;;;;;;1999.90;999.90;;;18.60;99.90;;;;;;5032867;28;20026;-88
2023/06/11 00:44:36;;;;;;;1999.90;999.90;;;18.50;99.90;;;;;;5032877;28;20484;-87
2023/06/11 00:47:03;;;;;;;1999.90;999.90;;;18.50;99.90;;;;;;5032854;28;20071;-88
2023/06/11 00:49:28;;;;;;;1999.90;999.90;;;18.50;99.90;;;;;;5032901;28;20032;-87
2023/06/11 00:51:54;;;;;;;1999.90;999.90;;;18.50;99.90;;;;;;5032530;28;20029;-87
2023/06/11 00:54:20;;;;;;;1999.90;999.90;;;18.50;99.90;;;;;;5034909;28;20026;-88
2023/06/11 00:56:46;;;;;;;1999.90;999.90;;;18.40;99.90;;;;;;5036473;28;20473;-88
2023/06/11 00:59:17;;;;;;;1999.90;999.90;;;18.40;99.90;;;;;;5042329;28;20018;-88
2023/06/11 01:01:57;;;;;;;1999.90;999.90;;;18.50;99.90;;;;;;5052557;28;20041;-87
2023/06/11 01:04:24;;;;;;;1999.90;999.90;;;18.50;99.90;;;;;;5052460;28;20036;-88
2023/06/11 01:06:57;;;;;;;1999.90;999.90;;;18.50;99.90;;;;;;5035180;28;20025;-88
2023/06/11 01:09:24;;;;;;;1999.90;999.90;;;18.50;99.90;;;;;;5052647;28;20022;-88
2023/06/11 01:11:53;;;;;;;1999.90;999.90;;;18.50;99.90;;;;;;5051637;28;20026;-87
2023/06/11 01:14:20;;;;;;;1999.90;999.90;;;18.50;99.90;;;;;;5030287;28;20097;-88
2023/06/11 01:16:56;;;;;;;1999.90;999.90;;;18.50;99.90;;;;;;5026537;28;20014;-87
2023/06/11 01:19:31;;;;;;;1999.90;999.90;;;18.60;99.90;;;;;;5028719;28;20030;-87
2023/06/11 01:22:05;;;;;;;1999.90;999.90;;;18.50;99.90;;;;;;5030503;28;20094;-87
2023/06/11 01:24:56;;;;;;;1999.90;999.90;;;18.60;99.90;;;;;;5047600;28;20030;-87
2023/06/11 01:27:40;;;;;;;1999.90;999.90;;;18.60;99.90;;;;;;5052541;28;20021;-88
2023/06/11 01:30:09;;;;;;;1999.90;999.90;;;18.60;99.90;;;;;;5051324;28;20021;-87
2023/06/11 01:32:36;;;;;;;1999.90;999.90;;;18.60;99.90;;;;;;5051721;28;20033;-88
2023/06/11 01:35:02;;;;;;;1999.90;999.90;;;18.60;99.90;;;;;;5037926;28;20029;-87
2023/06/11 01:37:29;;;;;;;1999.90;999.90;;;18.60;99.90;;;;;;5017533;28;20033;-88
2023/06/11 01:39:56;;;;;;;1999.90;999.90;;;18.60;99.90;;;;;;5035749;28;20119;-88
2023/06/11 01:42:24;;;;;;;1999.90;999.90;;;18.60;99.90;;;;;;5035388;28;20017;-88
2023/06/11 01:44:50;;;;;;;1999.90;999.90;;;18.60;99.90;;;;;;5017059;28;20091;-88
2023/06/11 01:47:16;;;;;;;1999.90;999.90;;;18.60;99.90;;;;;;5035546;28;20033;-88
2023/06/11 01:49:41;;;;;;;1999.90;999.90;;;18.60;99.90;;;;;;5035886;28;20037;-87
2023/06/11 01:52:07;;;;;;;1999.90;999.90;;;18.60;99.90;;;;;;5035271;28;20087;-88
2023/06/11 01:54:33;;;;;;;1999.90;999.90;;;18.60;99.90;;;;;;5035166;28;20033;-88
2023/06/11 01:56:58;;;;;;;1999.90;999.90;;;18.60;99.90;;;;;;5035349;28;20029;-88
2023/06/11 01:59:24;;;;;;;1999.90;999.90;;;18.60;99.90;;;;;;5035306;28;20436;-88
2023/06/11 02:01:52;;;;;;;1999.90;999.90;;;18.60;99.90;;;;;;5035160;28;20068;-87
2023/06/11 02:04:25;;;;;;;1999.90;999.90;;;18.60;99.90;;;;;;5034871;28;20381;-87
2023/06/11 02:06:50;;;;;;;1999.90;999.90;;;18.60;99.90;;;;;;5034454;28;20104;-88
2023/06/11 02:09:16;;;;;;;1999.90;999.90;;;18.60;99.90;;;;;;5035122;28;20523;-88
2023/06/11 02:11:42;;;;;;;1999.90;999.90;;;18.60;99.90;;;;;;5034724;28;20053;-87
2023/06/11 02:14:07;;;;;;;1999.90;999.90;;;18.60;99.90;;;;;;5015105;28;20081;-88
2023/06/11 02:16:33;;;;;;;1999.90;999.90;;;18.50;99.90;;;;;;5015050;28;20030;-87
2023/06/11 02:18:58;;;;;;;1999.90;999.90;;;18.50;99.90;;;;;;5015897;28;20109;-88
2023/06/11 02:21:24;;;;;;;1999.90;999.90;;;18.50;99.90;;;;;;5015115;28;20109;-88
2023/06/11 02:23:49;;;;;;;1999.90;999.90;;;18.50;99.90;;;;;;5023634;28;20028;-88
2023/06/11 02:26:15;;;;;;;1999.90;999.90;;;18.50;99.90;;;;;;5034656;28;20068;-87
2023/06/11 02:28:41;;;;;;;1999.90;999.90;;;18.50;99.90;;;;;;5034869;28;20447;-87
2023/06/11 02:31:06;;;;;;;1999.90;999.90;;;18.50;99.90;;;;;;5034575;28;20457;-88
2023/06/11 02:33:32;;;;;;;1999.90;999.90;;;18.50;99.90;;;;;;5034526;28;20116;-87
2023/06/11 02:35:57;;;;;;;1999.90;999.90;;;18.50;99.90;;;;;;5033332;28;20038;-87
2023/06/11 02:38:23;;;;;;;1999.90;999.90;;;18.50;99.90;;;;;;5034589;28;20511;-88
2023/06/11 02:40:49;;;;;;;1999.90;999.90;;;18.50;99.90;;;;;;5034309;28;20385;-87
2023/06/11 02:43:14;;;;;;;1999.90;999.90;;;18.40;99.90;;;;;;5034473;28;20052;-88
2023/06/11 02:45:41;;;;;;;1999.90;999.90;;;18.40;99.90;;;;;;5034267;28;20107;-87
2023/06/11 02:48:07;;;;;;;1999.90;999.90;;;18.40;99.90;;;;;;5033944;28;20443;-88
2023/06/11 02:50:32;;;;;;;1999.90;999.90;;;18.40;99.90;;;;;;5034129;28;20037;-88
2023/06/11 02:52:58;;;;;;;1999.90;999.90;;;18.40;99.90;;;;;;5033895;28;20504;-87
2023/06/11 02:55:24;;;;;;;1999.90;999.90;;;18.40;99.90;;;;;;5034185;28;20029;-87
2023/06/11 02:57:52;;;;;;;1999.90;999.90;;;18.40;99.90;;;;;;5034210;28;20021;-88
2023/06/11 03:00:18;;;;;;;1999.90;999.90;;;18.40;99.90;;;;;;5034065;28;20021;-88
2023/06/11 03:02:43;;;;;;;1999.90;999.90;;;18.40;99.90;;;;;;5034141;28;20029;-87
2023/06/11 03:05:09;;;;;;;1999.90;999.90;;;18.40;99.90;;;;;;5016257;28;20556;-88
2023/06/11 03:07:35;;;;;;;1999.90;999.90;;;18.30;99.90;;;;;;5033474;28;20030;-87
2023/06/11 03:10:01;;;;;;;1999.90;999.90;;;18.30;99.90;;;;;;5033181;28;20045;-87
2023/06/11 03:12:26;;;;;;;1999.90;999.90;;;18.30;99.90;;;;;;5033666;28;20060;-87
2023/06/11 03:14:52;;;;;;;1999.90;999.90;;;18.30;99.90;;;;;;5033352;28;20033;-88
2023/06/11 03:17:18;;;;;;;1999.90;999.90;;;18.40;99.90;;;;;;5033145;28;20024;-88
2023/06/11 03:19:43;;;;;;;1999.90;999.90;;;18.40;99.90;;;;;;5033903;28;20025;-87
2023/06/11 03:22:09;;;;;;;1999.90;999.90;;;18.30;99.90;;;;;;5033686;28;20485;-88
2023/06/11 03:24:35;;;;;;;1999.90;999.90;;;18.30;99.90;;;;;;5033297;28;20391;-87
2023/06/11 03:27:00;;;;;;;1999.90;999.90;;;18.30;99.90;;;;;;5033432;28;20041;-88
2023/06/11 03:29:26;;;;;;;1999.90;999.90;;;18.30;99.90;;;;;;5033082;28;20095;-88
2023/06/11 03:31:51;;;;;;;1999.90;999.90;;;18.40;99.90;;;;;;5033261;28;20075;-87
2023/06/11 03:34:17;;;;;;;1999.90;999.90;;;18.40;99.90;;;;;;5033330;28;20071;-88
2023/06/11 03:36:43;;;;;;;1999.90;999.90;;;18.40;99.90;;;;;;5033205;28;20520;-88
2023/06/11 03:39:08;;;;;;;1999.90;999.90;;;18.40;99.90;;;;;;5033632;28;20029;-88
2023/06/11 03:41:34;;;;;;;1999.90;999.90;;;18.40;99.90;;;;;;5033360;28;20535;-88
2023/06/11 03:44:00;;;;;;;1999.90;999.90;;;18.40;99.90;;;;;;5033351;28;20424;-87
2023/06/11 03:46:25;;;;;;;1999.90;999.90;;;18.40;99.90;;;;;;5033431;28;20021;-88
2023/06/11 03:48:51;;;;;;;1999.90;999.90;;;18.40;99.90;;;;;;5033588;28;20029;-87
2023/06/11 03:51:17;;;;;;;1999.90;999.90;;;18.50;99.90;;;;;;5033322;28;20507;-88
2023/06/11 03:53:42;;;;;;;1999.90;999.90;;;18.50;99.90;;;;;;5033332;28;20034;-88
2023/06/11 03:56:08;;;;;;;1999.90;999.90;;;18.40;99.90;;;;;;5033036;28;20108;-88
2023/06/11 03:58:33;;;;;;;1999.90;999.90;;;18.40;99.90;;;;;;5032550;28;20028;-88
2023/06/11 04:00:59;;;;;;;1999.90;999.90;;;18.40;99.90;;;;;;5032950;28;20535;-88
2023/06/11 04:03:25;;;;;;;1999.90;999.90;;;18.40;99.90;;;;;;5033066;28;20144;-88
2023/06/11 04:05:50;;;;;;;1999.90;999.90;;;18.40;99.90;;;;;;5033065;28;20017;-88
2023/06/11 04:08:16;;;;;;;1999.90;999.90;;;18.40;99.90;;;;;;5032050;28;20030;-88
2023/06/11 04:10:42;;;;;;;1999.90;999.90;;;18.40;99.90;;;;;;5015675;28;20025;-87
2023/06/11 04:13:08;;;;;;;1999.90;999.90;;;18.40;99.90;;;;;;5033014;28;20072;-88
2023/06/11 04:15:34;;;;;;;1999.90;999.90;;;18.40;99.90;;;;;;5033214;28;20026;-88
2023/06/11 04:17:59;;;;;;;1999.90;999.90;;;18.40;99.90;;;;;;5032964;28;20037;-88
2023/06/11 04:20:25;;;;;;;1999.90;999.90;;;18.40;99.90;;;;;;5032646;28;20021;-88
2023/06/11 04:22:50;;;;;;;1999.90;999.90;;;18.40;99.90;;;;;;5032400;28;20025;-87
2023/06/11 04:25:16;;;;;;;1999.90;999.90;;;18.40;99.90;;;;;;5032933;28;20036;-88
2023/06/11 04:27:43;;;;;;;1999.90;999.90;;;18.40;99.90;;;;;;5033019;28;20072;-88
2023/06/11 04:30:09;;;;;;;1999.90;999.90;;;18.40;99.90;;;;;;5036389;28;20032;-87
2023/06/11 04:32:36;;;;;;;1999.90;999.90;;;18.40;99.90;;;;;;5036803;28;20049;-87
2023/06/11 04:35:03;;;;;;;1999.90;999.90;;;18.40;99.90;;;;;;5036519;28;20014;-80
2023/06/11 04:37:30;;;;;;;1999.90;999.90;;;18.40;99.90;;;;;;5036813;28;20036;-87
2023/06/11 04:40:03;;;;;;;1999.90;999.90;;;18.40;99.90;;;;;;5036733;28;20102;-88
2023/06/11 04:42:29;;;;;;;1999.90;999.90;;;18.40;99.90;;;;;;5036634;28;20028;-87
2023/06/11 04:44:56;;;;;;;1999.90;999.90;;;18.40;99.90;;;;;;5036685;28;20029;-88
2023/06/11 04:47:22;;;;;;;1999.90;999.90;;;18.50;99.90;;;;;;5036478;28;20392;-87
2023/06/11 04:49:53;;;;;;;1999.90;999.90;;;18.40;99.90;;;;;;5036268;28;20481;-88
2023/06/11 04:52:18;;;;;;;1999.90;999.90;;;18.50;99.90;;;;;;5036577;28;20033;-88
2023/06/11 04:54:45;;;;;;;1999.90;999.90;;;18.40;99.90;;;;;;5036709;28;20399;-87
2023/06/11 04:57:13;;;;;;;1999.90;999.90;;;18.50;99.90;;;;;;5036524;28;20087;-88
2023/06/11 04:59:38;;;;;;;1999.90;999.90;;;18.50;99.90;;;;;;5036152;28;20030;-87
2023/06/11 05:02:04;;;;;;;1999.90;999.90;;;18.50;99.90;;;;;;5036313;28;20030;-88
2023/06/11 05:04:31;;;;;;;1999.90;999.90;;;18.50;99.90;;;;;;5015029;28;20064;-87
2023/06/11 05:06:57;;;;;;;1999.90;999.90;;;18.50;99.90;;;;;;5016479;28;20037;-88
2023/06/11 05:09:23;;;;;;;1999.90;999.90;;;18.50;99.90;;;;;;5025215;28;20404;-88
2023/06/11 05:11:49;;;;;;;1999.90;999.90;;;18.60;99.90;;;;;;5036141;28;20026;-88
2023/06/11 05:14:14;;;;;;;1999.90;999.90;;;18.60;99.90;;;;;;5035504;28;20105;-88
2023/06/11 05:16:40;;;;;;;1999.90;999.90;;;18.60;99.90;;;;;;5035809;28;20032;-88
2023/06/11 05:19:06;;;;;;;1999.90;999.90;;;18.60;99.90;;;;;;5035933;28;20025;-87
2023/06/11 05:21:32;;;;;;;1999.90;999.90;;;18.70;99.90;;;;;;5036201;28;20032;-88
2023/06/11 05:24:06;;;;;;;1999.90;999.90;;;18.80;99.90;;;;;;5035847;28;20037;-88
2023/06/11 05:26:36;;;;;;;1999.90;999.90;;;18.80;99.90;;;;;;5036352;28;20026;-88
2023/06/11 05:29:03;;;;;;;1999.90;999.90;;;18.80;99.90;;;;;;5035640;28;20052;-88
2023/06/11 05:31:35;;;;;;;1999.90;999.90;;;18.80;99.90;;;;;;5035659;28;20079;-88
2023/06/11 05:34:01;;;;;;;1999.90;999.90;;;18.80;99.90;;;;;;5035551;28;20021;-87
2023/06/11 05:36:27;;;;;;;1999.90;999.90;;;18.80;99.90;;;;;;5035479;28;20053;-88
2023/06/11 05:38:53;;;;;;;1999.90;999.90;;;18.70;99.90;;;;;;5035362;28;20036;-87
2023/06/11 05:41:20;;;;;;;1999.90;999.90;;;18.70;99.90;;;;;;5017666;28;20112;-88
2023/06/11 05:43:46;;;;;;;1999.90;999.90;;;18.60;99.90;;;;;;5035452;28;20018;-88
2023/06/11 05:46:13;;;;;;;1999.90;999.90;;;18.60;99.90;;;;;;5034888;28;20504;-88
2023/06/11 05:48:39;;;;;;;1999.90;999.90;;;18.50;99.90;;;;;;5017486;28;20021;-87
2023/06/11 05:51:05;;;;;;;1999.90;999.90;;;18.50;99.90;;;;;;5035542;28;20059;-88
2023/06/11 05:53:34;;;;;;;1999.90;999.90;;;18.50;99.90;;;;;;5035280;28;20112;-87
2023/06/11 05:56:03;;;;;;;1999.90;999.90;;;18.50;99.90;;;;;;5035375;28;20542;-86
2023/06/11 05:58:31;;;;;;;1999.90;999.90;;;18.50;99.90;;;;;;5035223;28;20029;-88
2023/06/11 06:01:01;;;;;;;1999.90;999.90;;;18.50;99.90;;;;;;5035012;28;20059;-87
2023/06/11 06:03:26;;;;;;;1999.90;999.90;;;18.60;99.90;;;;;;5035057;28;20025;-88
2023/06/11 06:05:52;;;;;;;1999.90;999.90;;;18.60;99.90;;;;;;5035038;28;20124;-88
2023/06/11 06:08:18;;;;;;;1999.90;999.90;;;18.60;99.90;;;;;;5035046;28;20080;-88
2023/06/11 06:10:43;;;;;;;1999.90;999.90;;;18.60;99.90;;;;;;5016025;28;20443;-87
2023/06/11 06:13:09;;;;;;;1999.90;999.90;;;18.70;99.90;;;;;;5023395;28;20022;-87
2023/06/11 06:15:34;;;;;;;1999.90;999.90;;;18.60;99.90;;;;;;5015097;28;20049;-88
2023/06/11 06:18:00;;;;;;;1999.90;999.90;;;18.60;99.90;;;;;;5013698;28;20033;-87
2023/06/11 06:20:25;;;;;;;1999.90;999.90;;;18.70;99.90;;;;;;5015033;28;20022;-87
2023/06/11 06:22:51;;;;;;;1999.90;999.90;;;18.80;99.90;;;;;;5014118;28;20400;-87
2023/06/11 06:25:17;;;;;;;1999.90;999.90;;;18.80;99.90;;;;;;5034748;28;20396;-88
2023/06/11 06:27:43;;;;;;;1999.90;999.90;;;18.70;99.90;;;;;;5034404;28;20149;-88
2023/06/11 06:30:09;;;;;;;1999.90;999.90;;;18.70;99.90;;;;;;5034600;28;20065;-87
2023/06/11 06:32:38;;;;;;;1999.90;999.90;;;18.70;99.90;;;;;;5034922;28;20112;-88
2023/06/11 06:35:05;;;;;;;1999.90;999.90;;;18.70;99.90;;;;;;5034690;28;20025;-88
2023/06/11 06:37:30;;;;;;;1999.90;999.90;;;18.90;99.90;;;;;;5034761;28;20032;-87
2023/06/11 06:39:56;;;;;;;1999.90;999.90;;;18.90;99.90;;;;;;5016645;28;20021;-88
2023/06/11 06:42:21;;;;;;;1999.90;999.90;;;19.10;99.90;;;;;;5033875;28;20116;-87
2023/06/11 06:44:47;;;;;;;1999.90;999.90;;;19.20;99.90;;;;;;5016520;28;20032;-87
2023/06/11 06:47:14;;;;;;;1999.90;999.90;;;19.30;99.90;;;;;;5033942;28;20554;-88
2023/06/11 06:49:40;;;;;;;1999.90;999.90;;;19.40;99.90;;;;;;5034222;28;20033;-87
2023/06/11 06:52:06;;;;;;;1999.90;999.90;;;19.40;99.90;;;;;;5033364;28;20469;-88
2023/06/11 06:54:32;;;;;;;1999.90;999.90;;;19.60;99.90;;;;;;5034162;28;20022;-87
2023/06/11 06:56:58;;;;;;;1999.90;999.90;;;19.80;99.90;;;;;;5034276;28;20030;-87
2023/06/11 06:59:23;;;;;;;1999.90;999.90;;;20.10;99.90;;;;;;5033846;28;20392;-87
2023/06/11 07:01:49;;;;;;;1999.90;999.90;;;20.30;99.90;;;;;;5034291;28;20033;-88
2023/06/11 07:04:14;;;;;;;1999.90;999.90;;;20.20;99.90;;;;;;5033692;28;20032;-87
2023/06/11 07:06:42;;;;;;;1999.90;999.90;;;20.20;99.90;;;;;;5033890;28;20033;-87
2023/06/11 07:09:08;;;;;;;1999.90;999.90;;;20.10;99.90;;;;;;5033548;28;20017;-88
2023/06/11 07:11:34;;;;;;;1999.90;999.90;;;20.20;99.90;;;;;;5033059;28;20392;-87
2023/06/11 07:14:00;;;;;;;1999.90;999.90;;;20.10;99.90;;;;;;5033901;28;20020;-87
2023/06/11 07:16:25;;;;;;;1999.90;999.90;;;20.30;99.90;;;;;;5033809;28;20025;-88
2023/06/11 07:18:51;;;;;;;1999.90;999.90;;;20.70;99.90;;;;;;5032760;28;20026;-88
2023/06/11 07:21:17;;;;;;;1999.90;999.90;;;20.50;99.90;;;;;;5033433;28;20029;-87
2023/06/11 07:23:45;;;;;;;1999.90;999.90;;;20.50;99.90;;;;;;5025579;28;20105;-88
2023/06/11 07:26:13;;;;;;;1999.90;999.90;;;20.70;99.90;;;;;;5013955;28;20375;-88
2023/06/11 07:28:40;;;;;;;1999.90;999.90;;;20.50;99.90;;;;;;5014055;28;20072;-88
2023/06/11 07:31:05;;;;;;;1999.90;999.90;;;20.50;99.90;;;;;;5013858;28;20029;-88
2023/06/11 07:33:31;;;;;;;1999.90;999.90;;;20.60;99.90;;;;;;5013875;28;20437;-87
2023/06/11 07:35:57;;;;;;;1999.90;999.90;;;20.70;99.90;;;;;;5013893;28;20053;-88
2023/06/11 07:38:22;;;;;;;1999.90;999.90;;;20.60;99.90;;;;;;5014006;28;20061;-88
2023/06/11 07:40:48;;;;;;;1999.90;999.90;;;20.50;99.90;;;;;;5013801;28;20057;-88
2023/06/11 07:43:14;;;;;;;1999.90;999.90;;;20.40;99.90;;;;;;5013877;28;20021;-88
2023/06/11 07:45:39;;;;;;;1999.90;999.90;;;20.50;99.90;;;;;;5013822;28;20478;-87
2023/06/11 07:48:05;;;;;;;1999.90;999.90;;;20.50;99.90;;;;;;5030521;28;20033;-87
2023/06/11 07:50:31;;;;;;;1999.90;999.90;;;20.60;99.90;;;;;;5033054;28;20033;-88
2023/06/11 07:52:57;;;;;;;1999.90;999.90;;;20.60;99.90;;;;;;5033049;28;20032;-88
2023/06/11 07:55:23;;;;;;;1999.90;999.90;;;20.70;99.90;;;;;;5033074;28;20189;-88
2023/06/11 07:57:48;;;;;;;1999.90;999.90;;;20.80;99.90;;;;;;5033038;28;20025;-88
2023/06/11 08:00:16;;;;;;;1999.90;999.90;;;20.70;99.90;;;;;;5032636;28;20473;-88
2023/06/11 08:02:43;;;;;;;1999.90;999.90;;;20.80;99.90;;;;;;5032566;28;20388;-87
2023/06/11 08:05:17;;;;;;;1999.90;999.90;;;20.70;99.90;;;;;;5015446;28;20433;-88
2023/06/11 08:07:44;;;;;;;1999.90;999.90;;;20.90;99.90;;;;;;5033137;28;20030;-87
2023/06/11 08:10:10;;;;;;;1999.90;999.90;;;20.90;99.90;;;;;;5015196;28;20396;-87
2023/06/11 08:12:36;;;;;;;1999.90;999.90;;;21.40;99.90;;;;;;5024542;28;20030;-88
2023/06/11 08:15:02;;;;;;;1999.90;999.90;;;21.80;99.90;;;;;;5011785;28;20084;-88
2023/06/11 08:17:28;;;;;;;1999.90;999.90;;;22.10;99.90;;;;;;5013067;28;20065;-88
2023/06/11 08:19:53;;;;;;;1999.90;999.90;;;22.50;99.90;;;;;;5012892;28;20049;-88
2023/06/11 08:22:19;;;;;;;1999.90;999.90;;;23.70;99.90;;;;;;5012756;28;20077;-88
2023/06/11 08:24:45;;;;;;;1999.90;999.90;;;23.90;99.90;;;;;;5029033;28;20029;-88
2023/06/11 08:27:12;;;;;;;1999.90;999.90;;;23.40;99.90;;;;;;5032800;28;20033;-88
2023/06/11 08:29:38;;;;;;;1999.90;999.90;;;23.00;99.90;;;;;;5032744;28;20021;-88
2023/06/11 08:32:04;;;;;;;1999.90;999.90;;;22.70;99.90;;;;;;5032500;28;20044;-87
2023/06/11 08:34:30;;;;;;;1999.90;999.90;;;22.60;99.90;;;;;;5032549;28;20026;-88
2023/06/11 08:36:57;;;;;;;1999.90;999.90;;;23.00;99.90;;;;;;5032302;28;20083;-88
2023/06/11 08:39:23;;;;;;;1999.90;999.90;;;23.30;99.90;;;;;;5032478;28;20053;-88
2023/06/11 08:41:48;;;;;;;1999.90;999.90;;;23.70;99.90;;;;;;5032728;28;20057;-87
2023/06/11 08:44:14;;;;;;;1999.90;999.90;;;23.60;99.90;;;;;;5032037;28;20401;-87
2023/06/11 08:46:44;;;;;;;1999.90;999.90;;;24.10;99.90;;;;;;5031921;28;20025;-87
2023/06/11 08:49:22;;;;;;;1999.90;999.90;;;25.80;99.90;;;;;;5032393;28;20033;-88
2023/06/11 08:51:48;;;;;;;1999.90;999.90;;;26.20;99.90;;;;;;5032324;28;20032;-87
2023/06/11 08:54:15;;;;;;;1999.90;999.90;;;26.90;99.90;;;;;;5032261;28;20021;-86
2023/06/11 08:56:42;;;;;;;1999.90;999.90;;;29.30;99.90;;;;;;5014642;28;20022;-85
2023/06/11 08:59:08;;;;;;;1999.90;999.90;;;30.50;99.90;;;;;;5032167;28;20025;-86
2023/06/11 09:01:34;;;;;;;1999.90;999.90;;;31.20;99.90;;;;;;5032511;28;20485;-86
2023/06/11 09:04:00;;;;;;;1999.90;999.90;;;31.30;99.90;;;;;;5032307;28;20021;-85
2023/06/11 09:06:27;;;;;;;1999.90;999.90;;;31.30;99.90;;;;;;5032619;28;20096;-86
2023/06/11 09:09:07;;;;;;;1999.90;999.90;;;32.40;99.90;;;;;;5032143;28;20071;-86
2023/06/11 09:11:37;;;;;;;1999.90;999.90;;;31.40;99.90;;;;;;5032293;28;20061;-87
2023/06/11 09:14:04;;;;;;;1999.90;999.90;;;31.10;99.90;;;;;;5031398;28;20645;-86
2023/06/11 09:16:39;;;;;;;1999.90;999.90;;;29.80;99.90;;;;;;5035890;28;20014;-85
2023/06/11 09:19:05;;;;;;;1999.90;999.90;;;30.30;99.90;;;;;;5035717;28;20022;-85
2023/06/11 09:21:30;;;;;;;1999.90;999.90;;;31.20;99.90;;;;;;5035728;28;20494;-85
2023/06/11 09:24:06;;;;;;;1999.90;999.90;;;32.00;99.90;;;;;;5035505;28;20021;-86
2023/06/11 09:26:32;;;;;;;1999.90;999.90;;;32.50;99.90;;;;;;5035597;28;20056;-86
2023/06/11 09:29:00;;;;;;;1999.90;999.90;;;32.50;99.90;;;;;;5035808;28;20477;-86
2023/06/11 09:31:26;;;;;;;1999.90;999.90;;;32.80;99.90;;;;;;5017723;28;20017;-86
2023/06/11 09:34:02;;;;;;;1999.90;999.90;;;33.20;99.90;;;;;;5035552;28;20075;-86
2023/06/11 09:36:31;;;;;;;1999.90;999.90;;;32.40;99.90;;;;;;5035245;28;20129;-86
2023/06/11 09:38:57;;;;;;;1999.90;999.90;;;31.60;99.90;;;;;;5035606;28;20028;-86
2023/06/11 09:41:23;;;;;;;1999.90;999.90;;;32.60;99.90;;;;;;5035300;28;20029;-86
2023/06/11 09:43:52;;;;;;;1999.90;999.90;;;33.10;99.90;;;;;;5035244;28;20078;-79
2023/06/11 09:46:18;;;;;;;1999.90;999.90;;;33.40;99.90;;;;;;5034721;28;20034;-86
2023/06/11 09:48:45;;;;;;;1999.90;999.90;;;33.90;99.90;;;;;;5034437;28;20156;-87
2023/06/11 09:51:11;;;;;;;1999.90;999.90;;;34.10;99.90;;;;;;5034869;28;20030;-86
2023/06/11 09:53:40;;;;;;;1999.90;999.90;;;34.10;99.90;;;;;;5034977;28;20022;-86
2023/06/11 09:56:06;;;;;;;1999.90;999.90;;;33.40;99.90;;;;;;5034646;28;20026;-86
2023/06/11 09:58:34;;;;;;;1999.90;999.90;;;33.60;99.90;;;;;;5034633;28;20028;-87
2023/06/11 10:01:02;;;;;;;1999.90;999.90;;;33.10;99.90;;;;;;5034299;28;20017;-86
2023/06/11 10:03:30;;;;;;;1999.90;999.90;;;32.60;99.90;;;;;;5034550;28;20160;-87
2023/06/11 10:05:56;;;;;;;1999.90;999.90;;;33.00;99.90;;;;;;5035122;28;20025;-87
2023/06/11 10:08:26;;;;;;;1999.90;999.90;;;33.50;99.90;;;;;;5017003;28;20128;-87
2023/06/11 10:10:56;;;;;;;1999.90;999.90;;;34.50;99.90;;;;;;5034844;28;20099;-87
2023/06/11 10:13:35;;;;;;;1999.90;999.90;;;35.00;99.90;;;;;;5033590;28;20034;-87
2023/06/11 10:16:01;;;;;;;1999.90;999.90;;;35.20;99.60;;;;;;5034851;28;20032;-86
2023/06/11 10:18:29;;;;;;;1999.90;999.90;;;34.80;99.70;;;;;;5016775;28;20399;-87
2023/06/11 10:20:58;;;;;;;1999.90;999.90;;;33.80;99.80;;;;;;5035507;28;20017;-87
2023/06/11 10:23:38;;;;;;;1999.90;999.90;;;31.10;99.90;;;;;;5035183;28;20036;-78
2023/06/11 10:26:04;;;;;;;1999.90;999.90;;;29.20;99.90;;;;;;5033894;28;20107;-78
2023/06/11 10:28:59;;;;;;;1999.90;999.90;;;29.20;99.90;;;;;;5034981;28;20109;-86
2023/06/11 10:31:39;;;;;;;1999.90;999.90;;;30.00;99.90;;;;;;5009361;28;20100;-85
2023/06/11 10:34:06;;;;;;;1999.90;999.90;;;31.50;99.90;;;;;;5034322;28;20104;-86
2023/06/11 10:36:36;;;;;;;1999.90;999.90;;;32.50;99.90;;;;;;5034122;28;20128;-87
2023/06/11 10:39:09;;;;;;;1999.90;999.90;;;33.00;99.90;;;;;;5016439;28;20033;-86
2023/06/11 10:41:44;;;;;;;1999.90;999.90;;;33.10;99.90;;;;;;5034361;28;20025;-86
2023/06/11 10:44:14;;;;;;;1999.90;999.90;;;33.20;99.90;;;;;;5034225;28;20492;-87
2023/06/11 10:46:50;;;;;;;1999.90;999.90;;;33.00;99.90;;;;;;5033905;28;20053;-87
2023/06/11 10:49:16;;;;;;;1999.90;999.90;;;31.70;99.90;;;;;;5034216;28;20488;-87
2023/06/11 10:51:41;;;;;;;1999.90;999.90;;;30.50;99.90;;;;;;5033515;28;20076;-85
2023/06/11 10:54:07;;;;;;;1999.90;999.90;;;32.00;99.90;;;;;;5034024;28;20025;-87
2023/06/11 10:56:38;;;;;;;1999.90;999.90;;;33.10;99.90;;;;;;5034012;28;20084;-87
2023/06/11 10:59:08;;;;;;;1999.90;999.90;;;33.40;99.90;;;;;;5033714;28;20544;-87
2023/06/11 11:01:33;;;;;;;1999.90;999.90;;;32.70;99.90;;;;;;5033829;28;20025;-86
2023/06/11 11:04:02;;;;;;;1999.90;999.90;;;31.70;99.90;;;;;;5033970;28;20104;-85
2023/06/11 11:06:28;;;;;;;1999.90;999.90;;;31.90;99.90;;;;;;5034462;28;20030;-87
2023/06/11 11:08:59;;;;;;;1999.90;999.90;;;32.90;99.90;;;;;;5033715;28;20097;-88
2023/06/11 11:11:26;;;;;;;1999.90;999.90;;;32.80;99.90;;;;;;5015728;28;20124;-87
2023/06/11 11:13:53;;;;;;;1999.90;999.90;;;32.80;99.90;;;;;;5015836;28;20014;-87
2023/06/11 11:16:20;;;;;;;1999.90;999.90;;;32.90;99.90;;;;;;5013231;28;20029;-87
2023/06/11 11:18:47;;;;;;;1999.90;999.90;;;32.70;99.90;;;;;;5013299;28;20022;-86
2023/06/11 11:21:14;;;;;;;1999.90;999.90;;;33.00;99.90;;;;;;5013785;28;20053;-87
2023/06/11 11:23:41;;;;;;;1999.90;999.90;;;33.10;99.90;;;;;;5020995;28;20048;-87
2023/06/11 11:26:06;;;;;;;1999.90;999.90;;;32.60;99.90;;;;;;5033189;28;20051;-87
2023/06/11 11:28:32;;;;;;;1999.90;999.90;;;32.80;99.90;;;;;;5033291;28;20439;-87
2023/06/11 11:30:59;;;;;;;1999.90;999.90;;;32.90;99.90;;;;;;5033283;28;20029;-87
2023/06/11 11:33:26;;;;;;;1999.90;999.90;;;33.10;99.90;;;;;;5033234;28;20021;-87
2023/06/11 11:35:56;;;;;;;1999.90;999.90;;;31.10;99.90;;;;;;5033055;28;20049;-87
2023/06/11 11:38:22;;;;;;;1999.90;999.90;;;31.40;99.90;;;;;;5033046;28;20033;-87
2023/06/11 11:40:55;;;;;;;1999.90;999.90;;;31.70;99.90;;;;;;5033607;28;20033;-87
2023/06/11 11:43:21;;;;;;;1999.90;999.90;;;31.60;99.90;;;;;;5039105;28;20021;-86
2023/06/11 11:45:48;;;;;;;1999.90;999.90;;;31.40;99.90;;;;;;5025908;28;20089;-86
2023/06/11 11:48:17;;;;;;;1999.90;999.90;;;31.90;99.90;;;;;;5042323;28;20057;-86
2023/06/11 11:50:50;;;;;;;1999.90;999.90;;;32.60;99.90;;;;;;5041932;28;20067;-87
2023/06/11 11:53:18;;;;;;;1999.90;999.90;;;33.10;99.90;;;;;;5041694;28;20021;-87
2023/06/11 11:55:44;;;;;;;1999.90;999.90;;;33.70;99.90;;;;;;5042694;28;20037;-86
2023/06/11 11:58:13;;;;;;;1999.90;999.90;;;33.20;99.90;;;;;;5041382;28;20029;-87